createdAt,value
2022-08-26T00:00:11.451Z,87.67
2022-08-26T00:01:15.449Z,87.93
2022-08-26T00:02:20.566Z,87.78
2022-08-26T00:03:24.121Z,87.96
2022-08-26T00:04:27.375Z,88.10
2022-08-26T00:05:29.498Z,88.07
2022-08-26T00:06:33.631Z,88.32
2022-08-26T00:07:37.433Z,88.02
2022-08-26T00:08:41.334Z,88.56
2022-08-26T00:09:47.342Z,88.29
2022-08-26T00:10:51.060Z,88.35
2022-08-26T00:11:54.519Z,88.79
2022-08-26T00:12:57.806Z,89.11
2022-08-26T00:13:59.973Z,88.70
2022-08-26T00:15:03.141Z,89.00
2022-08-26T00:16:08.883Z,88.79
2022-08-26T00:17:14.897Z,89.24
2022-08-26T00:18:22.144Z,89.16
2022-08-26T00:19:25.759Z,89.23
2022-08-26T00:20:31.217Z,89.29
2022-08-26T00:21:34.554Z,89.08
2022-08-26T00:22:38.344Z,89.35
2022-08-26T00:23:41.596Z,89.51
2022-08-26T00:24:47.944Z,89.45
2022-08-26T00:25:51.680Z,89.57
2022-08-26T00:26:53.898Z,89.64
2022-08-26T00:27:57.622Z,89.50
2022-08-26T00:28:59.752Z,89.54
2022-08-26T00:30:05.282Z,89.54
2022-08-26T00:31:10.966Z,89.89
2022-08-26T00:32:13.420Z,89.81
2022-08-26T00:33:18.428Z,90.21
2022-08-26T00:34:20.660Z,90.04
2022-08-26T00:35:24.762Z,89.98
2022-08-26T00:36:30.108Z,89.72
2022-08-26T00:37:33.483Z,90.17
2022-08-26T00:38:38.943Z,90.39
2022-08-26T00:39:41.338Z,90.24
2022-08-26T00:40:47.168Z,90.17
2022-08-26T00:41:50.511Z,90.53
2022-08-26T00:42:54.270Z,90.63
2022-08-26T00:43:57.410Z,90.63
2022-08-26T00:45:00.809Z,90.62
2022-08-26T00:46:09.176Z,90.66
2022-08-26T00:47:21.781Z,90.85
2022-08-26T00:48:31.752Z,90.66
2022-08-26T00:49:38.927Z,90.56
2022-08-26T00:50:49.440Z,90.88
2022-08-26T00:51:55.794Z,90.82
2022-08-26T00:53:01.279Z,91.01
2022-08-26T00:54:10.735Z,90.79
2022-08-26T00:55:20.453Z,91.06
2022-08-26T00:56:29.670Z,91.00
2022-08-26T00:57:34.197Z,90.99
2022-08-26T00:58:38.804Z,90.93
2022-08-26T00:59:45.670Z,91.37
2022-08-26T01:00:48.127Z,91.25
2022-08-26T01:01:52.039Z,91.44
2022-08-26T01:02:56.148Z,91.31
2022-08-26T01:04:00.917Z,91.32
2022-08-26T01:05:05.969Z,91.60
2022-08-26T01:06:12.616Z,91.53
2022-08-26T01:07:16.280Z,91.72
2022-08-26T01:08:19.402Z,91.57
2022-08-26T01:09:24.570Z,91.59
2022-08-26T01:10:31.294Z,91.60
2022-08-26T01:11:34.159Z,91.89
2022-08-26T01:12:42.395Z,91.58
2022-08-26T01:13:44.897Z,91.87
2022-08-26T01:14:48.989Z,91.50
2022-08-26T01:15:54.963Z,91.52
2022-08-26T01:16:58.566Z,91.91
2022-08-26T01:18:01.735Z,92.00
2022-08-26T01:19:11.255Z,92.05
2022-08-26T01:20:27.561Z,92.10
2022-08-26T01:21:40.729Z,92.16
2022-08-26T01:22:53.311Z,91.89
2022-08-26T01:23:57.857Z,92.09
2022-08-26T01:25:03.569Z,92.02
2022-08-26T01:26:19.695Z,92.24
2022-08-26T01:27:22.630Z,91.86
2022-08-26T01:28:30.670Z,92.08
2022-08-26T01:29:35.056Z,92.12
2022-08-26T01:30:40.866Z,92.14
2022-08-26T01:31:46.591Z,91.95
2022-08-26T01:32:51.637Z,92.35
2022-08-26T01:34:02.084Z,92.25
2022-08-26T01:35:05.957Z,92.22
2022-08-26T01:36:08.662Z,92.44
2022-08-26T01:37:15.908Z,92.44
2022-08-26T01:38:20.019Z,92.29
2022-08-26T01:39:23.277Z,92.55
2022-08-26T01:40:29.940Z,92.40
2022-08-26T01:41:33.826Z,92.47
2022-08-26T01:42:36.165Z,92.42
2022-08-26T01:43:41.326Z,92.65
2022-08-26T01:44:47.142Z,92.62
2022-08-26T01:45:54.624Z,92.63
2022-08-26T01:46:58.932Z,92.75
2022-08-26T01:48:05.566Z,92.85
2022-08-26T01:49:08.782Z,92.69
2022-08-26T01:50:20.134Z,92.76
2022-08-26T01:51:37.285Z,92.95
2022-08-26T01:52:43.670Z,92.76
2022-08-26T01:53:48.310Z,93.02
2022-08-26T01:54:51.648Z,92.94
2022-08-26T01:55:59.439Z,93.06
2022-08-26T01:57:03.103Z,93.26
2022-08-26T01:58:10.452Z,93.07
2022-08-26T01:59:16.887Z,93.21
2022-08-26T02:00:20.776Z,93.33
2022-08-26T02:01:24.849Z,93.28
2022-08-26T02:02:32.576Z,93.29
2022-08-26T02:03:42.287Z,93.21
2022-08-26T02:04:53.689Z,93.51
2022-08-26T02:05:59.185Z,93.68
2022-08-26T02:07:06.083Z,94.03
2022-08-26T02:08:10.403Z,93.90
2022-08-26T02:09:16.379Z,93.96
2022-08-26T02:10:18.600Z,93.97
2022-08-26T02:11:24.134Z,93.98
2022-08-26T02:12:28.338Z,94.10
2022-08-26T02:13:34.041Z,94.54
2022-08-26T02:14:43.790Z,94.51
2022-08-26T02:15:48.619Z,94.55
2022-08-26T02:16:53.209Z,94.48
2022-08-26T02:17:57.437Z,94.48
2022-08-26T02:19:02.510Z,94.47
2022-08-26T02:20:06.850Z,94.73
2022-08-26T02:21:17.979Z,94.89
2022-08-26T02:22:22.675Z,94.60
2022-08-26T02:23:28.296Z,94.75
2022-08-26T02:24:49.107Z,94.90
2022-08-26T02:25:57.931Z,95.06
2022-08-26T02:27:01.197Z,95.06
2022-08-26T02:28:05.014Z,95.33
2022-08-26T02:29:13.467Z,95.33
2022-08-26T02:30:21.709Z,95.46
2022-08-26T02:31:24.285Z,95.66
2022-08-26T02:32:27.456Z,95.49
2022-08-26T02:33:30.009Z,95.60
2022-08-26T02:34:34.898Z,95.38
2022-08-26T02:35:38.136Z,95.80
2022-08-26T02:36:41.912Z,95.91
2022-08-26T02:37:44.310Z,95.99
2022-08-26T02:38:47.554Z,95.74
2022-08-26T02:39:51.362Z,96.04
2022-08-26T02:40:55.378Z,95.94
2022-08-26T02:41:59.162Z,95.80
2022-08-26T02:43:02.502Z,95.81
2022-08-26T02:44:07.149Z,95.80
2022-08-26T02:45:11.756Z,95.98
2022-08-26T02:46:28.005Z,95.97
2022-08-26T02:47:34.293Z,95.89
2022-08-26T02:48:39.840Z,95.75
2022-08-26T02:49:44.430Z,95.74
2022-08-26T02:50:49.557Z,95.98
2022-08-26T02:51:53.583Z,95.94
2022-08-26T02:52:56.303Z,95.78
2022-08-26T02:53:59.495Z,95.95
2022-08-26T02:55:06.433Z,95.90
2022-08-26T02:56:10.489Z,95.92
2022-08-26T02:57:12.807Z,96.09
2022-08-26T02:58:16.352Z,96.08
2022-08-26T02:59:18.571Z,96.15
2022-08-26T03:00:21.994Z,95.95
2022-08-26T03:01:30.001Z,96.20
2022-08-26T03:02:33.267Z,96.26
2022-08-26T03:03:35.876Z,96.47
2022-08-26T03:04:40.019Z,96.62
2022-08-26T03:05:42.694Z,96.44
2022-08-26T03:06:47.049Z,96.17
2022-08-26T03:07:56.168Z,96.30
2022-08-26T03:08:58.392Z,96.55
2022-08-26T03:10:01.814Z,96.22
2022-08-26T03:11:13.315Z,96.49
2022-08-26T03:12:16.955Z,96.61
2022-08-26T03:13:21.010Z,96.62
2022-08-26T03:14:24.842Z,96.38
2022-08-26T03:15:26.970Z,96.93
2022-08-26T03:16:32.938Z,96.82
2022-08-26T03:17:35.142Z,96.76
2022-08-26T03:18:39.166Z,96.87
2022-08-26T03:19:41.361Z,97.05
2022-08-26T03:20:44.813Z,97.18
2022-08-26T03:21:47.247Z,97.30
2022-08-26T03:22:51.526Z,97.41
2022-08-26T03:23:53.724Z,97.44
2022-08-26T03:24:56.847Z,97.43
2022-08-26T03:25:59.011Z,97.45
2022-08-26T03:27:07.275Z,97.46
2022-08-26T03:28:09.806Z,97.53
2022-08-26T03:29:32.926Z,97.65
2022-08-26T03:30:44.701Z,97.75
2022-08-26T03:31:47.767Z,97.83
2022-08-26T03:32:50.969Z,97.92
2022-08-26T03:33:57.642Z,98.03
2022-08-26T03:35:03.003Z,98.06
2022-08-26T03:36:07.762Z,98.05
2022-08-26T03:37:10.950Z,98.21
2022-08-26T03:38:13.898Z,98.30
2022-08-26T03:39:17.136Z,98.18
2022-08-26T03:40:20.469Z,98.40
2022-08-26T03:41:23.786Z,98.21
2022-08-26T03:42:27.332Z,98.56
2022-08-26T03:43:30.780Z,98.29
2022-08-26T03:44:32.977Z,98.41
2022-08-26T03:45:37.498Z,98.71
2022-08-26T03:46:40.962Z,98.89
2022-08-26T03:47:44.696Z,98.64
2022-08-26T03:48:48.227Z,99.25
2022-08-26T03:49:51.889Z,99.03
2022-08-26T03:50:55.193Z,99.04
2022-08-26T03:51:57.737Z,99.18
2022-08-26T03:53:01.113Z,99.11
2022-08-26T03:54:05.613Z,99.27
2022-08-26T03:55:12.725Z,99.52
2022-08-26T03:56:15.032Z,99.22
2022-08-26T03:57:18.346Z,99.49
2022-08-26T03:58:24.340Z,99.46
2022-08-26T03:59:28.117Z,99.58
2022-08-26T04:00:30.818Z,99.77
2022-08-26T04:01:34.350Z,99.39
2022-08-26T04:02:36.580Z,99.89
2022-08-26T04:04:00.541Z,99.91
2022-08-26T04:05:04.138Z,100.00
2022-08-26T04:06:06.909Z,100.00
2022-08-26T04:07:10.338Z,100.00
2022-08-26T04:08:12.455Z,100.00
2022-08-26T04:09:20.716Z,100.00
2022-08-26T04:10:29.284Z,100.00
2022-08-26T04:11:34.377Z,100.00
2022-08-26T04:12:39.021Z,100.00
2022-08-26T04:13:42.517Z,100.00
2022-08-26T04:14:45.704Z,100.00
2022-08-26T04:15:47.931Z,100.00
2022-08-26T04:16:52.237Z,100.00
2022-08-26T04:17:55.785Z,100.00
2022-08-26T04:18:59.061Z,100.00
2022-08-26T04:20:02.319Z,100.00
2022-08-26T04:21:04.991Z,100.00
2022-08-26T04:22:11.405Z,100.00
2022-08-26T04:23:13.852Z,100.00
2022-08-26T04:24:22.631Z,100.00
2022-08-26T04:25:24.840Z,100.00
2022-08-26T04:26:28.157Z,100.00
2022-08-26T04:27:31.379Z,100.00
2022-08-26T04:28:33.707Z,100.00
2022-08-26T04:29:39.150Z,100.00
2022-08-26T04:30:41.357Z,100.00
2022-08-26T04:31:46.947Z,100.00
2022-08-26T04:32:51.411Z,100.00
2022-08-26T04:33:53.798Z,100.00
2022-08-26T04:34:57.618Z,100.00
2022-08-26T04:36:01.527Z,100.00
2022-08-26T04:37:05.652Z,100.00
2022-08-26T04:38:08.797Z,100.00
2022-08-26T04:39:14.962Z,100.00
2022-08-26T04:40:17.205Z,100.00
2022-08-26T04:41:22.310Z,100.00
2022-08-26T04:42:26.158Z,100.00
2022-08-26T04:43:30.490Z,100.00
2022-08-26T04:44:36.877Z,100.00
2022-08-26T04:45:41.907Z,100.00
2022-08-26T04:46:45.316Z,100.00
2022-08-26T04:47:47.907Z,100.00
2022-08-26T04:48:52.600Z,100.00
2022-08-26T04:49:57.569Z,100.00
2022-08-26T04:51:00.032Z,100.00
2022-08-26T04:52:03.651Z,100.00
2022-08-26T04:53:07.185Z,100.00
2022-08-26T04:54:10.691Z,100.00
2022-08-26T04:55:13.547Z,100.00
2022-08-26T04:56:17.217Z,100.00
2022-08-26T04:57:19.421Z,100.00
2022-08-26T04:58:24.537Z,100.00
2022-08-26T04:59:27.564Z,100.00
2022-08-26T05:00:31.836Z,100.00
2022-08-26T05:01:39.463Z,100.00
2022-08-26T05:02:42.864Z,100.00
2022-08-26T05:03:45.206Z,100.00
2022-08-26T05:04:48.414Z,100.00
2022-08-26T05:05:54.728Z,100.00
2022-08-26T05:07:02.226Z,100.00
2022-08-26T05:08:04.794Z,100.00
2022-08-26T05:09:07.988Z,100.00
2022-08-26T05:10:10.423Z,100.00
2022-08-26T05:11:14.159Z,100.00
2022-08-26T05:12:16.681Z,100.00
2022-08-26T05:13:21.994Z,100.00
2022-08-26T05:14:25.063Z,100.00
2022-08-26T05:15:28.271Z,100.00
2022-08-26T05:16:31.456Z,100.00
2022-08-26T05:17:36.354Z,100.00
2022-08-26T05:18:45.763Z,100.00
2022-08-26T05:19:48.778Z,100.00
2022-08-26T05:20:55.077Z,100.00
2022-08-26T05:21:58.197Z,100.00
2022-08-26T05:23:00.789Z,100.00
2022-08-26T05:24:04.775Z,100.00
2022-08-26T05:25:07.667Z,100.00
2022-08-26T05:26:10.892Z,100.00
2022-08-26T05:27:13.568Z,100.00
2022-08-26T05:28:20.267Z,100.00
2022-08-26T05:29:23.520Z,100.00
2022-08-26T05:30:25.638Z,100.00
2022-08-26T05:31:31.427Z,100.00
2022-08-26T05:32:36.175Z,100.00
2022-08-26T05:33:38.362Z,100.00
2022-08-26T05:34:44.967Z,100.00
2022-08-26T05:35:48.239Z,100.00
2022-08-26T05:36:52.552Z,99.93
2022-08-26T05:37:54.786Z,99.96
2022-08-26T05:38:58.266Z,99.88
2022-08-26T05:40:02.905Z,99.56
2022-08-26T05:41:15.598Z,99.84
2022-08-26T05:42:20.091Z,99.35
2022-08-26T05:43:22.255Z,99.30
2022-08-26T05:44:25.502Z,99.29
2022-08-26T05:45:27.920Z,99.11
2022-08-26T05:46:31.759Z,99.23
2022-08-26T05:47:35.583Z,99.01
2022-08-26T05:50:40.376Z,98.92
2022-08-26T05:51:45.148Z,98.68
2022-08-26T05:52:47.538Z,98.39
2022-08-26T05:53:54.922Z,98.26
2022-08-26T05:54:57.360Z,98.23
2022-08-26T05:56:00.558Z,98.06
2022-08-26T05:57:02.842Z,98.14
2022-08-26T05:58:07.590Z,98.05
2022-08-26T05:59:15.330Z,97.98
2022-08-26T06:00:17.441Z,97.95
2022-08-26T06:01:22.558Z,97.81
2022-08-26T06:02:26.431Z,97.89
2022-08-26T06:03:32.171Z,97.40
2022-08-26T06:04:35.390Z,97.36
2022-08-26T06:05:40.561Z,97.16
2022-08-26T06:06:43.908Z,96.30
2022-08-26T06:08:05.757Z,96.18
2022-08-26T06:09:11.102Z,95.99
2022-08-26T06:10:32.663Z,95.69
2022-08-26T06:11:36.143Z,95.04
2022-08-26T06:12:38.551Z,94.67
2022-08-26T06:13:42.688Z,95.06
2022-08-26T06:14:44.845Z,94.58
2022-08-26T06:15:52.947Z,94.32
2022-08-26T06:16:56.109Z,94.03
2022-08-26T06:17:58.171Z,93.58
2022-08-26T06:19:03.790Z,93.34
2022-08-26T06:20:14.241Z,93.22
2022-08-26T06:21:19.429Z,92.97
2022-08-26T06:22:39.864Z,92.81
2022-08-26T06:24:01.147Z,92.51
2022-08-26T06:25:21.960Z,92.20
2022-08-26T06:26:26.131Z,92.10
2022-08-26T06:27:32.598Z,91.64
2022-08-26T06:28:35.071Z,91.61
2022-08-26T06:29:40.259Z,91.42
2022-08-26T06:30:42.717Z,91.04
2022-08-26T06:31:46.000Z,90.85
2022-08-26T06:32:48.092Z,91.01
2022-08-26T06:33:53.389Z,90.32
2022-08-26T06:34:58.098Z,90.16
2022-08-26T06:36:02.240Z,89.95
2022-08-26T06:37:06.506Z,89.43
2022-08-26T06:38:09.613Z,89.39
2022-08-26T06:39:15.331Z,89.48
2022-08-26T06:40:17.626Z,89.58
2022-08-26T06:41:22.728Z,89.42
2022-08-26T06:42:25.901Z,89.35
2022-08-26T06:43:29.696Z,89.61
2022-08-26T06:44:32.883Z,89.18
2022-08-26T06:45:35.027Z,88.87
2022-08-26T06:46:38.566Z,88.75
2022-08-26T06:47:40.789Z,88.36
2022-08-26T06:48:44.292Z,87.98
2022-08-26T06:49:46.432Z,87.85
2022-08-26T06:50:51.025Z,87.41
2022-08-26T06:51:54.160Z,86.56
2022-08-26T06:52:57.308Z,86.56
2022-08-26T06:54:03.100Z,86.72
2022-08-26T06:55:06.120Z,86.60
2022-08-26T06:56:11.319Z,86.61
2022-08-26T06:57:14.412Z,86.33
2022-08-26T06:58:20.068Z,86.54
2022-08-26T06:59:23.154Z,86.26
2022-08-26T07:00:25.672Z,86.84
2022-08-26T07:01:33.148Z,86.41
2022-08-26T07:02:35.331Z,86.33
2022-08-26T07:03:39.777Z,86.53
2022-08-26T07:04:44.474Z,86.64
2022-08-26T07:05:52.571Z,86.72
2022-08-26T07:06:56.293Z,86.56
2022-08-26T07:07:59.494Z,86.09
2022-08-26T07:09:05.046Z,85.95
2022-08-26T07:10:09.619Z,85.59
2022-08-26T07:11:12.519Z,85.30
2022-08-26T07:12:15.654Z,85.42
2022-08-26T07:13:18.264Z,85.48
2022-08-26T07:14:35.365Z,85.54
2022-08-26T07:15:40.071Z,85.37
2022-08-26T07:16:43.227Z,85.31
2022-08-26T07:17:46.339Z,85.33
2022-08-26T07:18:48.631Z,85.10
2022-08-26T07:19:53.642Z,84.92
2022-08-26T07:20:57.181Z,84.85
2022-08-26T07:22:03.374Z,84.89
2022-08-26T07:23:07.776Z,84.42
2022-08-26T07:24:17.493Z,84.72
2022-08-26T07:25:19.657Z,84.43
2022-08-26T07:26:26.341Z,84.81
2022-08-26T07:27:31.746Z,84.95
2022-08-26T07:28:33.995Z,84.52
2022-08-26T07:29:39.020Z,84.47
2022-08-26T07:30:42.288Z,84.77
2022-08-26T07:31:45.288Z,84.85
2022-08-26T07:32:48.663Z,84.65
2022-08-26T07:33:51.329Z,84.71
2022-08-26T07:34:55.187Z,84.62
2022-08-26T07:35:58.719Z,84.58
2022-08-26T07:37:03.518Z,84.58
2022-08-26T07:38:05.661Z,84.56
2022-08-26T07:39:08.998Z,84.44
2022-08-26T07:40:11.949Z,84.34
2022-08-26T07:41:17.453Z,84.26
2022-08-26T07:42:20.480Z,84.25
2022-08-26T07:43:23.827Z,84.14
2022-08-26T07:44:27.896Z,83.93
2022-08-26T07:45:30.276Z,84.11
2022-08-26T07:46:33.440Z,83.72
2022-08-26T07:47:37.271Z,83.79
2022-08-26T07:48:39.462Z,83.46
2022-08-26T07:49:52.729Z,83.06
2022-08-26T07:50:55.188Z,82.89
2022-08-26T07:52:00.334Z,83.08
2022-08-26T07:53:03.089Z,82.70
2022-08-26T07:54:07.457Z,82.97
2022-08-26T07:55:11.436Z,82.63
2022-08-26T07:56:13.603Z,82.64
2022-08-26T07:57:16.962Z,83.04
2022-08-26T07:58:21.385Z,82.85
2022-08-26T07:59:25.160Z,82.33
2022-08-26T08:00:27.950Z,82.61
2022-08-26T08:01:31.516Z,81.96
2022-08-26T08:02:36.490Z,81.93
2022-08-26T08:03:38.768Z,81.48
2022-08-26T08:04:42.066Z,81.27
2022-08-26T08:05:44.444Z,81.05
2022-08-26T08:06:49.566Z,80.79
2022-08-26T08:07:53.639Z,80.94
2022-08-26T08:09:16.452Z,80.67
2022-08-26T08:10:22.521Z,79.94
2022-08-26T08:11:31.100Z,79.89
2022-08-26T08:12:33.263Z,79.71
2022-08-26T08:13:38.373Z,79.25
2022-08-26T08:14:40.510Z,79.11
2022-08-26T08:15:45.007Z,78.98
2022-08-26T08:16:47.278Z,78.37
2022-08-26T08:17:58.799Z,78.44
2022-08-26T08:19:03.770Z,78.27
2022-08-26T08:20:08.309Z,77.82
2022-08-26T08:21:21.785Z,77.79
2022-08-26T08:22:26.857Z,78.20
2022-08-26T08:23:31.999Z,77.86
2022-08-26T08:24:35.819Z,77.92
2022-08-26T08:25:37.972Z,78.02
2022-08-26T08:26:41.382Z,77.45
2022-08-26T08:27:45.221Z,77.90
2022-08-26T08:28:48.770Z,77.10
2022-08-26T08:29:50.991Z,77.14
2022-08-26T08:30:56.100Z,77.57
2022-08-26T08:31:59.908Z,77.34
2022-08-26T08:33:03.304Z,77.70
2022-08-26T08:34:05.814Z,78.01
2022-08-26T08:35:11.587Z,77.94
2022-08-26T08:36:18.548Z,78.19
2022-08-26T08:37:23.944Z,78.65
2022-08-26T08:38:26.741Z,78.71
2022-08-26T08:39:32.872Z,78.34
2022-08-26T08:40:40.072Z,78.21
2022-08-26T08:41:55.492Z,78.63
2022-08-26T08:43:03.791Z,78.79
2022-08-26T08:44:13.836Z,79.12
2022-08-26T08:45:23.483Z,79.04
2022-08-26T08:46:26.574Z,79.73
2022-08-26T08:47:34.358Z,79.64
2022-08-26T08:48:43.451Z,79.87
2022-08-26T08:49:47.077Z,80.57
2022-08-26T08:50:53.947Z,80.66
2022-08-26T08:52:00.590Z,80.75
2022-08-26T08:53:12.380Z,80.70
2022-08-26T08:54:17.995Z,81.12
2022-08-26T08:55:31.409Z,81.09
2022-08-26T08:56:38.316Z,80.72
2022-08-26T08:58:02.287Z,81.21
2022-08-26T08:59:14.053Z,81.25
2022-08-26T09:00:19.811Z,80.97
2022-08-26T09:01:56.533Z,81.43
2022-08-26T09:03:03.965Z,81.61
2022-08-26T09:04:25.876Z,81.48
2022-08-26T09:05:34.251Z,81.28
2022-08-26T09:06:36.446Z,81.23
2022-08-26T09:07:47.914Z,81.57
2022-08-26T09:08:52.753Z,81.01
2022-08-26T09:09:59.169Z,81.10
2022-08-26T09:11:05.191Z,80.89
2022-08-26T09:12:14.662Z,80.56
2022-08-26T09:13:26.126Z,79.82
2022-08-26T09:14:32.028Z,79.48
2022-08-26T09:15:48.240Z,79.67
2022-08-26T09:17:02.603Z,79.36
2022-08-26T09:18:11.146Z,79.44
2022-08-26T09:19:24.690Z,79.29
2022-08-26T09:20:49.816Z,79.18
2022-08-26T09:21:57.076Z,79.53
2022-08-26T09:23:00.585Z,79.76
2022-08-26T09:24:03.818Z,79.95
2022-08-26T09:25:11.172Z,80.05
2022-08-26T09:26:20.203Z,79.74
2022-08-26T09:27:37.819Z,80.13
2022-08-26T09:28:46.068Z,80.36
2022-08-26T09:29:50.414Z,80.80
2022-08-26T09:31:03.099Z,80.92
2022-08-26T09:32:21.101Z,81.19
2022-08-26T09:33:29.403Z,81.82
2022-08-26T09:34:33.506Z,81.73
2022-08-26T09:35:39.530Z,81.99
2022-08-26T09:36:45.369Z,82.26
2022-08-26T09:38:52.894Z,82.72
2022-08-26T09:40:11.275Z,82.95
2022-08-26T09:41:26.206Z,83.11
2022-08-26T09:42:28.653Z,83.86
2022-08-26T09:43:32.552Z,83.81
2022-08-26T09:44:36.584Z,83.96
2022-08-26T09:45:50.107Z,84.34
2022-08-26T09:46:59.037Z,84.10
2022-08-26T09:48:02.266Z,83.93
2022-08-26T09:49:35.868Z,83.42
2022-08-26T09:50:39.835Z,83.39
2022-08-26T09:51:44.319Z,83.08
2022-08-26T09:53:09.911Z,83.17
2022-08-26T09:54:30.237Z,82.78
2022-08-26T09:55:33.707Z,82.46
2022-08-26T09:56:39.762Z,83.04
2022-08-26T09:57:48.971Z,82.43
2022-08-26T09:58:52.447Z,82.53
2022-08-26T09:59:55.066Z,82.75
2022-08-26T10:01:01.540Z,82.38
2022-08-26T10:02:21.286Z,82.93
2022-08-26T10:03:28.409Z,82.54
2022-08-26T10:04:34.182Z,82.75
2022-08-26T10:05:42.763Z,82.80
2022-08-26T10:06:57.079Z,82.70
2022-08-26T10:08:01.865Z,82.58
2022-08-26T10:09:09.890Z,82.47
2022-08-26T10:10:22.595Z,83.17
2022-08-26T10:11:34.572Z,83.16
2022-08-26T10:12:48.248Z,82.96
2022-08-26T10:13:57.925Z,82.89
2022-08-26T10:15:03.489Z,82.90
2022-08-26T10:16:14.713Z,83.16
2022-08-26T10:17:22.066Z,83.29
2022-08-26T10:18:31.931Z,82.86
2022-08-26T10:19:55.516Z,82.81
2022-08-26T10:21:07.419Z,82.86
2022-08-26T10:22:18.174Z,82.85
2022-08-26T10:23:23.387Z,83.19
2022-08-26T10:24:32.395Z,83.03
2022-08-26T10:25:42.443Z,82.92
2022-08-26T10:26:59.856Z,82.89
2022-08-26T10:28:11.086Z,82.86
2022-08-26T10:29:19.937Z,83.15
2022-08-26T10:30:30.973Z,82.58
2022-08-26T10:31:40.971Z,82.54
2022-08-26T10:32:48.940Z,82.43
2022-08-26T10:33:55.468Z,82.79
2022-08-26T10:35:01.951Z,82.94
2022-08-26T10:36:36.441Z,82.60
2022-08-26T10:37:50.021Z,82.70
2022-08-26T10:38:53.451Z,83.18
2022-08-26T10:40:00.650Z,83.12
2022-08-26T10:41:10.500Z,82.60
2022-08-26T10:42:18.391Z,82.95
2022-08-26T10:43:26.667Z,82.92
2022-08-26T10:44:34.450Z,82.75
2022-08-26T10:45:43.903Z,83.11
2022-08-26T10:46:51.977Z,83.20
2022-08-26T10:47:57.736Z,82.89
2022-08-26T10:49:06.513Z,83.49
2022-08-26T10:50:11.235Z,83.10
2022-08-26T10:51:18.902Z,83.53
2022-08-26T10:52:29.757Z,83.28
2022-08-26T10:53:44.410Z,83.80
2022-08-26T10:54:53.820Z,83.69
2022-08-26T10:56:04.628Z,83.91
2022-08-26T10:57:15.236Z,84.16
2022-08-26T10:58:33.123Z,83.74
2022-08-26T10:59:50.329Z,84.27
2022-08-26T11:01:22.841Z,84.03
2022-08-26T11:02:34.713Z,84.30
2022-08-26T11:03:44.469Z,84.25
2022-08-26T11:04:54.315Z,84.05
2022-08-26T11:06:25.579Z,84.54
2022-08-26T11:07:40.497Z,84.52
2022-08-26T11:08:48.168Z,84.42
2022-08-26T11:09:50.556Z,83.94
2022-08-26T11:10:59.232Z,84.17
2022-08-26T11:12:09.976Z,84.07
2022-08-26T11:13:13.565Z,83.89
2022-08-26T11:14:44.674Z,84.10
2022-08-26T11:16:01.171Z,83.94
2022-08-26T11:17:05.247Z,84.12
2022-08-26T11:18:10.614Z,83.56
2022-08-26T11:20:02.037Z,83.16
2022-08-26T11:21:52.695Z,83.19
2022-08-26T11:22:59.594Z,82.72
2022-08-26T11:24:01.846Z,82.58
2022-08-26T11:25:09.560Z,82.75
2022-08-26T11:26:18.895Z,82.02
2022-08-26T11:28:03.352Z,81.75
2022-08-26T11:29:13.114Z,81.90
2022-08-26T11:30:47.734Z,81.77
2022-08-26T11:32:00.293Z,81.31
2022-08-26T11:33:05.492Z,81.15
2022-08-26T11:34:14.301Z,81.52
2022-08-26T11:35:52.159Z,81.54
2022-08-26T11:37:01.569Z,81.79
2022-08-26T11:38:18.050Z,81.82
2022-08-26T11:39:25.702Z,81.64
2022-08-26T11:40:33.080Z,81.88
2022-08-26T11:41:35.387Z,81.36
2022-08-26T11:42:43.249Z,81.49
2022-08-26T11:43:49.375Z,81.29
2022-08-26T11:44:52.582Z,81.17
2022-08-26T11:46:01.276Z,80.97
2022-08-26T11:47:11.417Z,81.21
2022-08-26T11:48:18.876Z,81.02
2022-08-26T11:49:21.146Z,80.89
2022-08-26T11:50:27.307Z,80.55
2022-08-26T11:51:31.615Z,80.48
2022-08-26T11:52:36.643Z,79.91
2022-08-26T11:53:41.293Z,79.47
2022-08-26T11:55:03.768Z,79.65
2022-08-26T11:56:11.550Z,78.91
2022-08-26T11:57:15.002Z,78.72
2022-08-26T11:58:20.323Z,78.51
2022-08-26T11:59:38.691Z,78.53
2022-08-26T12:00:52.837Z,77.56
2022-08-26T12:01:57.353Z,76.95
2022-08-26T12:03:06.114Z,76.37
2022-08-26T12:04:12.411Z,75.51
2022-08-26T12:05:30.904Z,73.75
2022-08-26T12:06:43.345Z,73.65
2022-08-26T12:07:53.104Z,73.33
2022-08-26T12:08:58.099Z,72.29
2022-08-26T12:10:03.547Z,71.97
2022-08-26T12:11:07.627Z,71.09
2022-08-26T12:12:13.257Z,70.84
2022-08-26T12:13:23.470Z,70.99
2022-08-26T12:14:27.827Z,70.33
2022-08-26T12:15:32.903Z,70.48
2022-08-26T12:16:39.843Z,70.04
2022-08-26T12:17:43.300Z,69.34
2022-08-26T12:18:46.528Z,69.36
2022-08-26T12:19:49.675Z,68.90
2022-08-26T12:20:54.333Z,68.74
2022-08-26T12:22:02.758Z,68.52
2022-08-26T12:23:07.667Z,68.75
2022-08-26T12:24:10.882Z,68.70
2022-08-26T12:25:13.169Z,68.78
2022-08-26T12:26:25.569Z,69.23
2022-08-26T12:27:30.376Z,68.78
2022-08-26T12:28:33.746Z,69.58
2022-08-26T12:29:36.055Z,69.68
2022-08-26T12:30:39.520Z,69.64
2022-08-26T12:31:45.166Z,69.74
2022-08-26T12:32:56.665Z,69.75
2022-08-26T12:34:04.220Z,69.47
2022-08-26T12:35:09.292Z,70.04
2022-08-26T12:36:18.423Z,70.05
2022-08-26T12:37:21.733Z,70.12
2022-08-26T12:38:28.112Z,70.38
2022-08-26T12:39:34.414Z,70.24
2022-08-26T12:40:43.288Z,70.35
2022-08-26T12:41:53.039Z,70.09
2022-08-26T12:42:56.524Z,69.65
2022-08-26T12:43:58.791Z,70.04
2022-08-26T12:45:06.517Z,69.50
2022-08-26T12:46:11.320Z,69.47
2022-08-26T12:47:25.799Z,69.25
2022-08-26T12:48:50.259Z,69.29
2022-08-26T12:50:03.722Z,68.99
2022-08-26T12:51:08.599Z,68.74
2022-08-26T12:52:31.019Z,68.15
2022-08-26T12:53:44.340Z,68.45
2022-08-26T12:55:01.346Z,68.49
2022-08-26T12:56:21.987Z,67.84
2022-08-26T12:57:28.277Z,67.79
2022-08-26T12:58:33.328Z,67.74
2022-08-26T12:59:35.669Z,68.27
2022-08-26T13:00:41.250Z,67.83
2022-08-26T13:01:44.953Z,68.24
2022-08-26T13:02:48.345Z,67.96
2022-08-26T13:03:51.884Z,68.21
2022-08-26T13:05:00.669Z,68.03
2022-08-26T13:06:30.049Z,68.29
2022-08-26T13:07:32.279Z,68.43
2022-08-26T13:08:40.476Z,68.81
2022-08-26T13:09:43.087Z,69.15
2022-08-26T13:10:48.557Z,69.31
2022-08-26T13:12:02.268Z,70.22
2022-08-26T13:13:05.278Z,70.36
2022-08-26T13:14:11.261Z,70.85
2022-08-26T13:15:13.418Z,70.29
2022-08-26T13:16:16.704Z,70.70
2022-08-26T13:17:19.070Z,70.96
2022-08-26T13:18:22.451Z,71.05
2022-08-26T13:19:26.895Z,71.59
2022-08-26T13:20:29.256Z,71.61
2022-08-26T13:21:37.429Z,71.97
2022-08-26T13:23:45.309Z,72.47
2022-08-26T13:24:47.482Z,72.57
2022-08-26T13:25:50.735Z,72.99
2022-08-26T13:26:52.892Z,73.39
2022-08-26T13:27:56.409Z,73.31
2022-08-26T13:29:01.490Z,73.53
2022-08-26T13:30:06.730Z,73.65
2022-08-26T13:31:12.453Z,73.66
2022-08-26T13:32:15.494Z,73.86
2022-08-26T13:33:19.428Z,73.82
2022-08-26T13:34:23.539Z,74.22
2022-08-26T13:35:29.173Z,74.66
2022-08-26T13:36:32.554Z,74.59
2022-08-26T13:37:35.686Z,74.46
2022-08-26T13:38:38.891Z,74.55
2022-08-26T13:39:44.120Z,74.50
2022-08-26T13:40:47.711Z,74.55
2022-08-26T13:41:50.320Z,74.67
2022-08-26T13:42:53.548Z,74.84
2022-08-26T13:43:55.686Z,75.01
2022-08-26T13:44:59.782Z,75.02
2022-08-26T13:46:03.279Z,74.98
2022-08-26T13:47:06.226Z,74.64
2022-08-26T13:48:09.917Z,74.59
2022-08-26T13:49:13.325Z,74.78
2022-08-26T13:50:19.037Z,74.67
2022-08-26T13:51:22.831Z,74.84
2022-08-26T13:52:30.602Z,74.25
2022-08-26T13:53:34.277Z,74.01
2022-08-26T13:54:36.449Z,73.62
2022-08-26T13:55:44.333Z,73.75
2022-08-26T13:56:46.439Z,74.06
2022-08-26T13:57:49.536Z,73.91
2022-08-26T13:58:52.616Z,73.62
2022-08-26T13:59:56.515Z,73.83
2022-08-26T14:00:59.814Z,73.73
2022-08-26T14:02:03.790Z,73.59
2022-08-26T14:03:12.597Z,73.97
2022-08-26T14:04:27.044Z,73.90
2022-08-26T14:05:40.617Z,73.46
2022-08-26T14:06:42.771Z,73.35
2022-08-26T14:07:46.109Z,73.39
2022-08-26T14:08:48.616Z,73.88
2022-08-26T14:09:51.843Z,73.80
2022-08-26T14:10:56.347Z,74.27
2022-08-26T14:12:00.991Z,74.11
2022-08-26T14:13:06.278Z,73.88
2022-08-26T14:14:09.872Z,73.82
2022-08-26T14:15:16.267Z,73.29
2022-08-26T14:16:24.295Z,73.12